EGNJ

Humberside Airport

Grimsby, United Kingdom
METAR EGNJ 202350Z AUTO 00000KT 9999 FEW035/// SCT041/// OVC049/// 19/18 Q1018
Observed Flight Rules
Aug-20 @ 23:50 UTC (18 minutes ago) Visual Flight Rules
Visibility Clouds
10,000+ meters
  • Few at 3,500' AGL
  • Scattered at 4,100' AGL
  • Overcast at 4,900' AGL
Temperatures Readings
Current 19°C / 66°F
Dewpoint 18°C / 64°F
Humidity 94%
Altimeter 30.06" Hg
Pressure 1018 hPa
Elevation 31
METAR EGNJ 202350Z AUTO 00000KT 9999 FEW035/// SCT041/// OVC049/// 19/18 Q1018
Observed Flight Rules
Aug-20 @ 23:50 UTC
(18 minutes ago)
VFR
Clouds
  • Few at 3,500' AGL
  • Scattered at 4,100' AGL
  • Overcast at 4,900' AGL
Temperature Dewpoint
19°C / 66°F 18°C / 64°F
Humidity Altimeter Pressure
94% 30.06" Hg 1018 hPa